Time;durP1;ratioP1;P1;durP2;ratioP2;P2;SDS_P1;SDS_P2;PMS_P1;PMS_P2;Temp;Humidity;BMP_temperature;BMP_pressure;BME280_temperature;BME280_humidity;BME280_pressure;Samples;Min_cycle;Max_cycle;Signal;HPM_P1;HPM_P2
2022/08/26 00:01:52;;;;;;;12.38;3.13;;;;;;;;;;6125922;23;20441;-72
2022/08/26 00:04:20;;;;;;;11.07;3.38;;;;;;;;;;6125784;23;20542;-71
2022/08/26 00:06:48;;;;;;;9.45;3.20;;;;;;;;;;6126128;23;20026;-72
2022/08/26 00:09:16;;;;;;;10.77;3.25;;;;;;;;;;6125734;23;20326;-72
2022/08/26 00:11:43;;;;;;;11.90;3.75;;;;;;;;;;6125880;23;20080;-72
2022/08/26 00:14:12;;;;;;;12.93;3.38;;;;;;;;;;6126091;23;20391;-73
2022/08/26 00:16:40;;;;;;;14.30;3.67;;;;;;;;;;6126014;23;20048;-72
2022/08/26 00:19:19;;;;;;;11.15;3.35;;;;;;;;;;6125615;23;20042;-72
2022/08/26 00:21:48;;;;;;;9.85;4.18;;;;;;;;;;6124132;23;20029;-72
2022/08/26 00:24:16;;;;;;;14.60;3.75;;;;;;;;;;6126143;23;20025;-72
2022/08/26 00:26:44;;;;;;;10.48;3.50;;;;;;;;;;6126275;23;20076;-72
2022/08/26 00:29:12;;;;;;;11.27;3.22;;;;;;;;;;6124798;23;20029;-71
2022/08/26 00:31:41;;;;;;;16.17;4.25;;;;;;;;;;6126033;23;20018;-73
2022/08/26 00:34:11;;;;;;;10.88;3.38;;;;;;;;;;6126865;23;20010;-72
2022/08/26 00:36:40;;;;;;;15.48;3.65;;;;;;;;;;6126781;23;20349;-72
2022/08/26 00:39:08;;;;;;;12.63;3.50;;;;;;;;;;6126481;23;20018;-72
2022/08/26 00:41:37;;;;;;;9.73;3.33;;;;;;;;;;6126357;23;20030;-72
2022/08/26 00:44:06;;;;;;;10.20;3.22;;;;;;;;;;6126565;23;20065;-72
2022/08/26 00:46:36;;;;;;;13.25;3.47;;;;;;;;;;6126316;23;20073;-72
2022/08/26 00:49:05;;;;;;;11.75;3.72;;;;;;;;;;6126193;23;20014;-73
2022/08/26 00:51:55;;;;;;;14.10;3.70;;;;;;;;;;6125934;23;20073;-73
2022/08/26 00:54:24;;;;;;;12.55;3.95;;;;;;;;;;6126479;23;20093;-73
2022/08/26 00:57:04;;;;;;;11.90;3.47;;;;;;;;;;6126115;23;20018;-72
2022/08/26 00:59:43;;;;;;;10.73;3.15;;;;;;;;;;6125824;23;20064;-73
2022/08/26 01:02:11;;;;;;;11.05;3.35;;;;;;;;;;6124478;23;20448;-72
2022/08/26 01:04:53;;;;;;;9.07;3.20;;;;;;;;;;6126473;23;20519;-72
2022/08/26 01:07:22;;;;;;;;;;;;;;;;;;6128222;23;20408;-72
2022/08/26 01:09:49;;;;;;;13.93;3.30;;;;;;;;;;6127828;23;19924;-73
2022/08/26 01:12:17;;;;;;;10.48;3.85;;;;;;;;;;6127850;23;20021;-72
2022/08/26 01:14:48;;;;;;;12.40;3.58;;;;;;;;;;6127936;23;20081;-72
2022/08/26 01:17:16;;;;;;;8.93;3.30;;;;;;;;;;6128217;23;20078;-72
2022/08/26 01:19:49;;;;;;;13.20;3.58;;;;;;;;;;6127818;23;20575;-72
2022/08/26 01:22:19;;;;;;;11.70;3.47;;;;;;;;;;6128053;23;20077;-72
2022/08/26 01:24:47;;;;;;;13.45;4.03;;;;;;;;;;6127804;23;20037;-72
2022/08/26 01:27:17;;;;;;;11.90;3.40;;;;;;;;;;6127829;23;20025;-72
2022/08/26 01:29:46;;;;;;;13.27;3.83;;;;;;;;;;6127725;23;20408;-72
2022/08/26 01:32:18;;;;;;;12.52;4.13;;;;;;;;;;6127966;23;20053;-73
2022/08/26 01:34:46;;;;;;;8.50;3.25;;;;;;;;;;6128105;23;20014;-72
2022/08/26 01:37:16;;;;;;;13.52;3.70;;;;;;;;;;6128241;23;20025;-72
2022/08/26 01:39:44;;;;;;;11.82;6.43;;;;;;;;;;6127680;23;20453;-72
2022/08/26 01:42:13;;;;;;;10.80;3.53;;;;;;;;;;6128180;23;20021;-73
2022/08/26 01:44:44;;;;;;;10.70;4.28;;;;;;;;;;6128097;23;20018;-73
2022/08/26 01:47:12;;;;;;;14.45;4.03;;;;;;;;;;6127636;23;20018;-72
2022/08/26 01:49:41;;;;;;;11.15;3.63;;;;;;;;;;6125431;23;20018;-72
2022/08/26 01:52:09;;;;;;;14.93;3.28;;;;;;;;;;6127085;23;20072;-72
2022/08/26 01:54:39;;;;;;;12.90;3.40;;;;;;;;;;6125247;23;20384;-71
2022/08/26 01:57:06;;;;;;;12.18;3.53;;;;;;;;;;6126430;23;20022;-72
2022/08/26 01:59:34;;;;;;;12.40;4.03;;;;;;;;;;6126748;23;20022;-72
2022/08/26 02:02:02;;;;;;;7.53;3.45;;;;;;;;;;6126423;23;20014;-72
2022/08/26 02:04:43;;;;;;;13.23;3.95;;;;;;;;;;6126644;23;20018;-72
2022/08/26 02:07:10;;;;;;;12.77;4.15;;;;;;;;;;6126507;23;20021;-72
2022/08/26 02:09:39;;;;;;;11.55;4.38;;;;;;;;;;6126442;23;20018;-72
2022/08/26 02:12:08;;;;;;;14.63;3.45;;;;;;;;;;6124786;23;20033;-72
2022/08/26 02:14:40;;;;;;;13.48;4.10;;;;;;;;;;6125192;23;20022;-71
2022/08/26 02:17:10;;;;;;;15.07;4.20;;;;;;;;;;6126286;23;20023;-71
2022/08/26 02:19:40;;;;;;;13.90;4.50;;;;;;;;;;6126777;23;20017;-72
2022/08/26 02:22:12;;;;;;;16.08;5.57;;;;;;;;;;6126287;23;20018;-71
2022/08/26 02:24:46;;;;;;;14.15;4.75;;;;;;;;;;6126466;23;20460;-72
2022/08/26 02:27:14;;;;;;;11.90;4.93;;;;;;;;;;6126542;23;20397;-72
2022/08/26 02:29:43;;;;;;;16.50;5.57;;;;;;;;;;6126438;23;20010;-72
2022/08/26 02:32:10;;;;;;;13.65;5.03;;;;;;;;;;6124906;23;20053;-72
2022/08/26 02:34:45;;;;;;;10.80;4.83;;;;;;;;;;6126460;23;20018;-72
2022/08/26 02:37:13;;;;;;;10.85;4.88;;;;;;;;;;6126448;23;20018;-71
2022/08/26 02:39:44;;;;;;;14.98;4.70;;;;;;;;;;6126209;23;20025;-72
2022/08/26 02:42:14;;;;;;;13.52;5.03;;;;;;;;;;6126272;23;20018;-72
2022/08/26 02:44:41;;;;;;;14.65;4.60;;;;;;;;;;6126360;23;20014;-72
2022/08/26 02:47:12;;;;;;;17.05;4.82;;;;;;;;;;6125945;23;20022;-71
2022/08/26 02:49:42;;;;;;;11.48;4.85;;;;;;;;;;6126076;23;20014;-72
2022/08/26 02:52:13;;;;;;;14.25;5.03;;;;;;;;;;6126111;23;20381;-72
2022/08/26 02:54:40;;;;;;;16.13;4.15;;;;;;;;;;6126216;23;20377;-72
2022/08/26 02:57:08;;;;;;;17.85;4.63;;;;;;;;;;6126201;23;20044;-72
2022/08/26 02:59:38;;;;;;;15.32;4.75;;;;;;;;;;6126570;23;20018;-72
2022/08/26 03:02:05;;;;;;;10.45;3.92;;;;;;;;;;6126171;23;20024;-72
2022/08/26 03:04:33;;;;;;;11.45;3.80;;;;;;;;;;6126157;23;20014;-72
2022/08/26 03:07:01;;;;;;;12.18;3.90;;;;;;;;;;6126674;23;20032;-72
2022/08/26 03:09:29;;;;;;;12.88;4.05;;;;;;;;;;6126168;23;20468;-72
2022/08/26 03:11:57;;;;;;;11.73;4.38;;;;;;;;;;6125723;23;20026;-73
2022/08/26 03:14:24;;;;;;;14.65;3.92;;;;;;;;;;6126100;23;20024;-72
2022/08/26 03:16:53;;;;;;;10.68;4.00;;;;;;;;;;6125903;23;20022;-72
2022/08/26 03:19:23;;;;;;;14.35;3.47;;;;;;;;;;6124454;23;20022;-72
2022/08/26 03:21:51;;;;;;;13.05;3.60;;;;;;;;;;6126346;23;20022;-72
2022/08/26 03:24:24;;;;;;;13.38;4.32;;;;;;;;;;6125940;23;20048;-71
2022/08/26 03:26:52;;;;;;;16.38;4.82;;;;;;;;;;6125759;23;20022;-71
2022/08/26 03:32:07;;;;;;;8.95;3.17;;;;;;;;;;6125618;23;20048;-72
2022/08/26 03:34:35;;;;;;;11.90;5.35;;;;;;;;;;6126165;23;20052;-72
2022/08/26 03:37:03;;;;;;;10.30;3.10;;;;;;;;;;6125679;23;20088;-72
2022/08/26 03:39:31;;;;;;;9.43;3.70;;;;;;;;;;6125807;23;20525;-72
2022/08/26 03:41:59;;;;;;;10.05;3.58;;;;;;;;;;6125730;23;20408;-72
2022/08/26 03:44:26;;;;;;;8.88;4.40;;;;;;;;;;6125666;23;20013;-72
2022/08/26 03:46:54;;;;;;;12.50;3.92;;;;;;;;;;6125567;23;20393;-72
2022/08/26 03:49:21;;;;;;;15.25;4.07;;;;;;;;;;6125970;23;20015;-71
2022/08/26 03:51:49;;;;;;;9.05;3.80;;;;;;;;;;6125568;23;20456;-72
2022/08/26 03:54:17;;;;;;;18.08;4.28;;;;;;;;;;6125789;23;20025;-72
2022/08/26 03:56:45;;;;;;;14.75;3.97;;;;;;;;;;6125755;23;20085;-72
2022/08/26 03:59:12;;;;;;;10.63;5.57;;;;;;;;;;6126028;23;20368;-72
2022/08/26 04:01:40;;;;;;;12.77;4.38;;;;;;;;;;6125497;23;20025;-72
2022/08/26 04:04:08;;;;;;;10.23;3.60;;;;;;;;;;6125591;23;20024;-72
2022/08/26 04:06:43;;;;;;;18.25;4.63;;;;;;;;;;6125572;23;20022;-72
2022/08/26 04:09:15;;;;;;;13.55;5.78;;;;;;;;;;6124106;23;20079;-71
2022/08/26 04:11:43;;;;;;;13.18;4.00;;;;;;;;;;6123861;23;20018;-71
2022/08/26 04:14:15;;;;;;;11.23;3.63;;;;;;;;;;6125582;23;20088;-72
2022/08/26 04:16:46;;;;;;;10.93;3.53;;;;;;;;;;6125516;23;20045;-72
2022/08/26 04:19:14;;;;;;;11.55;3.97;;;;;;;;;;6125419;23;20022;-72
2022/08/26 04:21:42;;;;;;;11.63;3.78;;;;;;;;;;6125490;23;20018;-72
2022/08/26 04:24:11;;;;;;;13.98;5.57;;;;;;;;;;6125321;23;20022;-71
2022/08/26 04:26:39;;;;;;;14.00;5.03;;;;;;;;;;6125364;23;20065;-72
2022/08/26 04:29:12;;;;;;;11.77;4.97;;;;;;;;;;6125427;23;20014;-71
2022/08/26 04:31:40;;;;;;;12.25;4.88;;;;;;;;;;6125471;23;20022;-72
2022/08/26 04:34:08;;;;;;;39.63;27.33;;;;;;;;;;6125634;23;20028;-72
2022/08/26 04:36:37;;;;;;;51.38;39.85;;;;;;;;;;6125314;23;20022;-70
2022/08/26 04:39:05;;;;;;;44.55;30.90;;;;;;;;;;6125595;23;20037;-72
2022/08/26 04:41:33;;;;;;;35.30;18.92;;;;;;;;;;6127294;23;20061;-71
2022/08/26 04:44:02;;;;;;;32.85;21.60;;;;;;;;;;6125854;23;20026;-71
2022/08/26 04:46:29;;;;;;;26.15;16.00;;;;;;;;;;6127485;23;20037;-72
2022/08/26 04:48:57;;;;;;;29.17;17.40;;;;;;;;;;6127387;23;20314;-71
2022/08/26 04:51:28;;;;;;;38.40;23.73;;;;;;;;;;6127223;23;20041;-70
2022/08/26 04:53:56;;;;;;;22.73;14.05;;;;;;;;;;6127274;23;20018;-71
2022/08/26 04:56:27;;;;;;;15.60;4.85;;;;;;;;;;6126889;23;20022;-71
2022/08/26 04:58:55;;;;;;;13.55;4.03;;;;;;;;;;6127194;23;20471;-71
2022/08/26 05:01:23;;;;;;;21.48;13.32;;;;;;;;;;6127030;23;20026;-71
2022/08/26 05:03:51;;;;;;;20.67;10.43;;;;;;;;;;6126856;23;20049;-71
2022/08/26 05:06:19;;;;;;;94.32;72.32;;;;;;;;;;6126881;23;20041;-70
2022/08/26 05:08:48;;;;;;;22.50;13.65;;;;;;;;;;6127106;23;20022;-70
2022/08/26 05:11:15;;;;;;;18.90;10.43;;;;;;;;;;6126694;23;20014;-70
2022/08/26 05:13:44;;;;;;;34.13;18.83;;;;;;;;;;6126861;23;20085;-70
2022/08/26 05:16:14;;;;;;;20.08;8.90;;;;;;;;;;6125243;23;20053;-70
2022/08/26 05:18:43;;;;;;;71.95;59.72;;;;;;;;;;6125596;23;20030;-70
2022/08/26 05:21:22;;;;;;;36.92;26.45;;;;;;;;;;6127121;23;20021;-70
2022/08/26 05:23:50;;;;;;;46.08;31.73;;;;;;;;;;6126773;23;20045;-70
2022/08/26 05:26:18;;;;;;;38.95;28.20;;;;;;;;;;6126889;23;20022;-70
2022/08/26 05:28:49;;;;;;;19.02;7.22;;;;;;;;;;6126943;23;20073;-71
2022/08/26 05:31:23;;;;;;;15.77;6.95;;;;;;;;;;6126845;23;20017;-71
2022/08/26 05:33:51;;;;;;;16.05;6.43;;;;;;;;;;6126371;23;20028;-71
2022/08/26 05:36:20;;;;;;;17.08;5.43;;;;;;;;;;6120986;23;20017;-71
2022/08/26 05:38:48;;;;;;;20.40;7.13;;;;;;;;;;6125053;23;20026;-70
2022/08/26 05:41:15;;;;;;;18.70;7.15;;;;;;;;;;6125540;23;20381;-71
2022/08/26 05:43:43;;;;;;;13.60;5.85;;;;;;;;;;6125609;23;20046;-70
2022/08/26 05:46:11;;;;;;;17.80;5.07;;;;;;;;;;6125561;23;20014;-71
2022/08/26 05:48:40;;;;;;;15.70;6.20;;;;;;;;;;6126230;23;20447;-71
2022/08/26 05:51:11;;;;;;;9.70;3.60;;;;;;;;;;6126137;23;20022;-71
2022/08/26 05:53:39;;;;;;;12.43;4.80;;;;;;;;;;6126774;23;20444;-70
2022/08/26 05:56:11;;;;;;;11.73;5.65;;;;;;;;;;6125342;23;20390;-70
2022/08/26 05:58:39;;;;;;;12.68;3.95;;;;;;;;;;6126713;23;20026;-69
2022/08/26 06:01:13;;;;;;;25.40;17.95;;;;;;;;;;6126663;23;20044;-69
2022/08/26 06:03:43;;;;;;;44.20;26.92;;;;;;;;;;6127120;23;20018;-69
2022/08/26 06:06:15;;;;;;;26.60;17.75;;;;;;;;;;6126530;23;20314;-69
2022/08/26 06:08:46;;;;;;;25.30;18.80;;;;;;;;;;6126860;23;20014;-69
2022/08/26 06:11:15;;;;;;;13.43;5.90;;;;;;;;;;6126537;23;20022;-70
2022/08/26 06:13:45;;;;;;;14.32;5.97;;;;;;;;;;6124764;23;20018;-70
2022/08/26 06:16:14;;;;;;;8.18;3.78;;;;;;;;;;6126574;23;20341;-70
2022/08/26 06:18:44;;;;;;;9.40;3.28;;;;;;;;;;6126132;23;20042;-69
2022/08/26 06:21:18;;;;;;;18.27;11.45;;;;;;;;;;6126084;23;20017;-70
2022/08/26 06:26:35;;;;;;;14.95;3.53;;;;;;;;;;6126250;23;20028;-70
2022/08/26 06:29:03;;;;;;;12.80;3.45;;;;;;;;;;6126146;23;20025;-70
2022/08/26 06:31:32;;;;;;;13.88;7.47;;;;;;;;;;6126310;23;20093;-70
2022/08/26 06:34:00;;;;;;;12.23;4.57;;;;;;;;;;6125863;23;20085;-69
2022/08/26 06:36:29;;;;;;;12.95;3.70;;;;;;;;;;6126147;23;20029;-71
2022/08/26 06:39:01;;;;;;;12.00;3.70;;;;;;;;;;6126277;23;20081;-70
2022/08/26 06:41:30;;;;;;;12.13;3.47;;;;;;;;;;6125938;23;20084;-70
2022/08/26 06:43:59;;;;;;;12.25;5.00;;;;;;;;;;6126481;23;20048;-71
2022/08/26 06:46:27;;;;;;;9.55;3.25;;;;;;;;;;6125965;23;20045;-65
2022/08/26 06:48:57;;;;;;;12.25;5.78;;;;;;;;;;6126014;23;20017;-65
2022/08/26 06:51:26;;;;;;;11.27;3.80;;;;;;;;;;6125210;23;20018;-65
2022/08/26 06:53:54;;;;;;;10.23;3.88;;;;;;;;;;6125694;23;20101;-65
2022/08/26 06:56:25;;;;;;;12.35;3.65;;;;;;;;;;6125737;23;20085;-65
2022/08/26 06:58:52;;;;;;;6.88;3.35;;;;;;;;;;6124533;23;20030;-66
2022/08/26 07:01:23;;;;;;;11.38;4.53;;;;;;;;;;6124286;23;20022;-65
2022/08/26 07:03:52;;;;;;;7.00;3.50;;;;;;;;;;6124981;23;20025;-66
2022/08/26 07:06:21;;;;;;;10.82;3.50;;;;;;;;;;6124974;23;20658;-65
2022/08/26 07:08:49;;;;;;;10.25;2.90;;;;;;;;;;6124902;23;20022;-66
2022/08/26 07:11:18;;;;;;;6.80;3.45;;;;;;;;;;6124986;23;20049;-65
2022/08/26 07:13:46;;;;;;;12.63;3.58;;;;;;;;;;6125252;23;20544;-66
2022/08/26 07:16:15;;;;;;;6.38;2.95;;;;;;;;;;6125447;23;20017;-66
2022/08/26 07:18:43;;;;;;;11.63;3.28;;;;;;;;;;6123802;23;20415;-66
2022/08/26 07:21:13;;;;;;;7.82;3.00;;;;;;;;;;6125385;23;20014;-65
2022/08/26 07:23:41;;;;;;;8.00;3.30;;;;;;;;;;6125133;23;20022;-66
2022/08/26 07:26:15;;;;;;;13.20;3.20;;;;;;;;;;6123815;23;20033;-66
2022/08/26 07:28:47;;;;;;;6.32;2.92;;;;;;;;;;6125356;23;20108;-66
2022/08/26 07:31:16;;;;;;;10.00;3.50;;;;;;;;;;6125331;23;20029;-66
2022/08/26 07:33:44;;;;;;;9.93;5.57;;;;;;;;;;6124122;23;20028;-66
2022/08/26 07:36:13;;;;;;;6.65;2.95;;;;;;;;;;6125313;23;20018;-66
2022/08/26 07:38:42;;;;;;;14.35;3.60;;;;;;;;;;6125168;23;20022;-66
2022/08/26 07:41:10;;;;;;;8.88;2.95;;;;;;;;;;6125373;23;20085;-66
2022/08/26 07:43:39;;;;;;;12.40;3.38;;;;;;;;;;6125183;23;20018;-66
2022/08/26 07:46:07;;;;;;;8.43;3.20;;;;;;;;;;6125336;23;20440;-65
2022/08/26 07:48:38;;;;;;;8.73;3.08;;;;;;;;;;6124818;23;20036;-65
2022/08/26 07:51:13;;;;;;;11.30;3.50;;;;;;;;;;6125331;23;20018;-66
2022/08/26 07:53:41;;;;;;;24.75;5.80;;;;;;;;;;6124699;23;20018;-67
2022/08/26 07:56:09;;;;;;;12.63;2.97;;;;;;;;;;6124742;23;20460;-66
2022/08/26 07:58:37;;;;;;;17.27;3.95;;;;;;;;;;6124668;23;20028;-66
2022/08/26 08:01:06;;;;;;;11.38;4.10;;;;;;;;;;6124973;23;20049;-66
2022/08/26 08:03:33;;;;;;;11.98;3.53;;;;;;;;;;6123385;23;20437;-66
2022/08/26 08:06:01;;;;;;;12.95;3.35;;;;;;;;;;6125045;23;20018;-66
2022/08/26 08:08:29;;;;;;;18.60;3.03;;;;;;;;;;6125180;23;20396;-66
2022/08/26 08:10:58;;;;;;;27.42;4.00;;;;;;;;;;6124587;23;20523;-65
2022/08/26 08:13:25;;;;;;;8.27;2.88;;;;;;;;;;6124887;23;20535;-66
2022/08/26 08:15:53;;;;;;;7.45;3.10;;;;;;;;;;6124703;23;20029;-66
2022/08/26 08:18:22;;;;;;;9.63;3.05;;;;;;;;;;6124859;23;20014;-66
2022/08/26 08:20:49;;;;;;;8.10;3.15;;;;;;;;;;6124799;23;20028;-66
2022/08/26 08:23:32;;;;;;;15.52;3.35;;;;;;;;;;6124461;23;20018;-66
2022/08/26 08:26:07;;;;;;;10.15;3.22;;;;;;;;;;6124338;23;20385;-66
2022/08/26 08:28:36;;;;;;;11.80;3.30;;;;;;;;;;6124992;23;20018;-66
2022/08/26 08:31:04;;;;;;;10.85;3.00;;;;;;;;;;6124824;23;20064;-65
2022/08/26 08:33:33;;;;;;;8.05;2.80;;;;;;;;;;6124825;23;20028;-65
2022/08/26 08:36:01;;;;;;;9.63;2.72;;;;;;;;;;6125362;23;20025;-66
2022/08/26 08:38:29;;;;;;;12.30;3.60;;;;;;;;;;6124771;23;20061;-66
2022/08/26 08:40:57;;;;;;;19.20;4.47;;;;;;;;;;6124962;23;20018;-66
2022/08/26 08:43:41;;;;;;;13.93;3.22;;;;;;;;;;6124785;23;20070;-66
2022/08/26 08:46:09;;;;;;;;;;;;;;;;;;6124038;23;20026;-66
2022/08/26 08:48:38;;;;;;;11.50;2.80;;;;;;;;;;6124652;23;20003;-66
2022/08/26 08:51:22;;;;;;;11.30;2.80;;;;;;;;;;6125202;23;20014;-66
2022/08/26 08:53:52;;;;;;;18.92;3.22;;;;;;;;;;6124937;23;20504;-66
2022/08/26 08:56:28;;;;;;;20.98;3.58;;;;;;;;;;6124663;23;20041;-66
2022/08/26 08:59:14;;;;;;;39.20;4.80;;;;;;;;;;6124774;23;20049;-65
2022/08/26 09:01:41;;;;;;;9.93;3.03;;;;;;;;;;6124791;23;20094;-66
2022/08/26 09:04:27;;;;;;;20.20;3.83;;;;;;;;;;6124694;23;20103;-66
2022/08/26 09:06:56;;;;;;;11.93;3.08;;;;;;;;;;6125105;23;20049;-65
2022/08/26 09:09:28;;;;;;;;;;;;;;;;;;6124901;23;20108;-65
2022/08/26 09:11:57;;;;;;;7.15;2.47;;;;;;;;;;6124680;23;19967;-66
2022/08/26 09:14:25;;;;;;;13.68;3.42;;;;;;;;;;6124499;23;20018;-65
2022/08/26 09:17:16;;;;;;;10.25;2.78;;;;;;;;;;6124928;23;20021;-65
2022/08/26 09:19:54;;;;;;;30.23;4.97;;;;;;;;;;6123459;23;20018;-65
2022/08/26 09:22:29;;;;;;;17.83;3.40;;;;;;;;;;6124698;23;20449;-65
2022/08/26 09:24:57;;;;;;;10.43;3.10;;;;;;;;;;6125209;23;20041;-65
2022/08/26 09:27:42;;;;;;;19.85;3.30;;;;;;;;;;6125977;23;20482;-65
2022/08/26 09:30:12;;;;;;;13.15;3.13;;;;;;;;;;6126908;23;20106;-65
2022/08/26 09:32:40;;;;;;;11.18;3.10;;;;;;;;;;6126732;23;20082;-65
2022/08/26 09:35:10;;;;;;;7.43;2.97;;;;;;;;;;6127071;23;20029;-65
2022/08/26 09:37:46;;;;;;;12.18;3.30;;;;;;;;;;6126696;23;20013;-65
2022/08/26 09:40:30;;;;;;;10.15;2.90;;;;;;;;;;6126399;23;20022;-65
2022/08/26 09:43:09;;;;;;;13.63;4.10;;;;;;;;;;6126385;23;20014;-65
2022/08/26 09:45:37;;;;;;;11.30;3.47;;;;;;;;;;6126603;23;20089;-65
2022/08/26 09:48:05;;;;;;;12.93;3.33;;;;;;;;;;6126784;23;20040;-65
2022/08/26 09:50:36;;;;;;;12.10;2.72;;;;;;;;;;6126644;23;20028;-65
2022/08/26 09:53:24;;;;;;;16.00;6.70;;;;;;;;;;6125431;23;20013;-65
2022/08/26 09:56:14;;;;;;;9.70;3.03;;;;;;;;;;6126607;23;20046;-65
2022/08/26 09:58:43;;;;;;;7.13;2.85;;;;;;;;;;6126344;23;20077;-65
2022/08/26 10:01:20;;;;;;;10.48;3.58;;;;;;;;;;6126548;23;20033;-65
2022/08/26 10:03:48;;;;;;;12.85;3.35;;;;;;;;;;6124908;23;20398;-65
2022/08/26 10:06:16;;;;;;;10.73;3.28;;;;;;;;;;6126341;23;20041;-65
